KOLS/OLS METAR and TAF weather

Enter ICAO airport designator
Station Type Date Time Source
KOLS METAR 2019/08/22 14:54 UTC NOAA

KOLS 221454Z AUTO 00000KT 10SM CLR 24/18 A3004 RMK AO2 SLP105 T02440178 50004 $


Station Type Date Time Source
KOLS Decoded METAR 2019/08/22 14:54 UTC NOAA

Station name not available
Aug 22, 2019 - 10:54 AM EDT / 2019.08.22 1454 UTC
Wind: Calm:0
Visibility: 10 mile(s):0
Sky conditions: clear
Temperature: 75.9 F (24.4 C)
Dew Point: 64.0 F (17.8 C)
Relative Humidity: 66%
Pressure (altimeter): 30.04 in. Hg (1017 hPa)
Pressure tendency: 0.01 inches (0.4 hPa) higher than three hours ago
ob: KOLS 221454Z AUTO 00000KT 10SM CLR 24/18 A3004 RMK AO2 SLP105 T02440178 50004
cycle: 15

Station Type Date Time Source
KOLS TAF 2019/08/22 12:22 UTC NOAA

TAF KOLS 221120Z 2212/2312 13007KT P6SM SCT110 BKN200
FM222000 18007KT P6SM VCSH BKN070 OVC200 PROB30 2223/2303 P6SM -TSRA BKN050CB
FM230400 16005KT P6SM BKN120 BKN200

Example: see airport list